createdAt,value
2018-09-16T00:00:53.921Z,0.00
2018-09-16T00:01:53.935Z,0.00
2018-09-16T00:02:53.962Z,0.00
2018-09-16T00:03:53.980Z,4.00
2018-09-16T00:04:54.003Z,0.00
2018-09-16T00:05:54.025Z,0.00
2018-09-16T00:06:54.038Z,0.00
2018-09-16T00:07:54.062Z,0.00
2018-09-16T00:08:54.079Z,0.00
2018-09-16T00:09:54.105Z,0.00
2018-09-16T00:10:54.119Z,0.00
2018-09-16T00:11:54.143Z,0.00
2018-09-16T00:12:54.155Z,0.00
2018-09-16T00:13:54.183Z,0.00
2018-09-16T00:14:54.201Z,0.00
2018-09-16T00:15:54.222Z,0.00
2018-09-16T00:16:54.237Z,0.00
2018-09-16T00:17:54.257Z,0.00
2018-09-16T00:18:54.276Z,0.00
2018-09-16T00:19:54.295Z,0.00
2018-09-16T00:20:54.320Z,0.00
2018-09-16T00:21:54.339Z,0.00
2018-09-16T00:22:54.355Z,0.00
2018-09-16T00:23:54.388Z,0.00
2018-09-16T00:24:54.399Z,0.00
2018-09-16T00:25:54.415Z,0.00
2018-09-16T00:26:54.439Z,0.00
2018-09-16T00:27:54.455Z,0.00
2018-09-16T00:28:54.477Z,0.00
2018-09-16T00:29:54.497Z,0.00
2018-09-16T00:30:54.515Z,0.00
2018-09-16T00:31:54.535Z,0.00
2018-09-16T00:32:54.554Z,0.00
2018-09-16T00:33:54.574Z,0.00
2018-09-16T00:34:54.596Z,0.00
2018-09-16T00:35:54.613Z,0.00
2018-09-16T00:36:54.633Z,0.00
2018-09-16T00:37:54.657Z,0.00
2018-09-16T00:38:54.676Z,0.00
2018-09-16T00:39:54.695Z,0.00
2018-09-16T00:40:54.716Z,0.00
2018-09-16T00:41:54.738Z,0.00
2018-09-16T00:42:54.756Z,0.00
2018-09-16T00:43:54.775Z,0.00
2018-09-16T00:44:54.790Z,0.00
2018-09-16T00:45:54.814Z,0.00
2018-09-16T00:46:54.874Z,0.00
2018-09-16T00:47:54.853Z,0.00
2018-09-16T00:48:54.875Z,0.00
2018-09-16T00:49:54.896Z,0.00
2018-09-16T00:50:54.914Z,0.00
2018-09-16T00:51:54.933Z,0.00
2018-09-16T00:52:54.959Z,0.00
2018-09-16T00:53:54.972Z,0.00
2018-09-16T00:54:54.988Z,0.00
2018-09-16T00:55:55.015Z,0.00
2018-09-16T00:56:55.033Z,0.00
2018-09-16T00:57:55.048Z,0.00
2018-09-16T00:58:55.069Z,0.00
2018-09-16T00:59:55.095Z,0.00
2018-09-16T01:00:55.107Z,0.00
2018-09-16T01:01:55.129Z,0.00
2018-09-16T01:02:55.154Z,0.00
2018-09-16T01:03:55.176Z,0.00
2018-09-16T01:04:55.187Z,0.00
2018-09-16T01:05:55.212Z,0.00
2018-09-16T01:06:55.228Z,0.00
2018-09-16T01:07:55.253Z,0.00
2018-09-16T01:08:55.271Z,0.00
2018-09-16T01:09:55.297Z,0.00
2018-09-16T01:10:55.309Z,0.00
2018-09-16T01:11:55.327Z,0.00
2018-09-16T01:12:55.347Z,0.00
2018-09-16T01:13:55.363Z,0.00
2018-09-16T01:14:55.388Z,0.00
2018-09-16T01:15:55.406Z,0.00
2018-09-16T01:16:55.431Z,0.00
2018-09-16T01:17:55.460Z,0.00
2018-09-16T01:18:55.467Z,0.00
2018-09-16T01:19:55.488Z,0.00
2018-09-16T01:20:55.510Z,0.00
2018-09-16T01:21:55.528Z,0.00
2018-09-16T01:22:55.548Z,0.00
2018-09-16T01:23:55.563Z,0.00
2018-09-16T01:24:55.586Z,0.00
2018-09-16T01:25:55.605Z,0.00
2018-09-16T01:26:55.620Z,0.00
2018-09-16T01:27:55.643Z,0.00
2018-09-16T01:28:55.674Z,0.00
2018-09-16T01:29:55.686Z,0.00
2018-09-16T01:30:55.702Z,0.00
2018-09-16T01:31:55.725Z,0.00
2018-09-16T01:32:55.748Z,0.00
2018-09-16T01:33:55.765Z,0.00
2018-09-16T01:34:55.788Z,0.00
2018-09-16T01:35:55.808Z,0.00
2018-09-16T01:36:55.816Z,0.00
2018-09-16T01:37:55.840Z,0.00
2018-09-16T01:38:55.860Z,0.00
2018-09-16T01:39:55.883Z,0.00
2018-09-16T01:40:55.896Z,0.00
2018-09-16T01:41:55.922Z,0.00
2018-09-16T01:42:55.939Z,0.00
2018-09-16T01:43:55.955Z,0.00
2018-09-16T01:44:55.980Z,0.00
2018-09-16T01:45:55.997Z,0.00
2018-09-16T01:46:56.021Z,0.00
2018-09-16T01:47:56.039Z,0.00
2018-09-16T01:48:56.060Z,0.00
2018-09-16T01:49:56.076Z,0.00
2018-09-16T01:50:56.096Z,0.00
2018-09-16T01:51:56.116Z,0.00
2018-09-16T01:52:56.133Z,0.00
2018-09-16T01:53:56.154Z,0.00
2018-09-16T01:54:56.175Z,0.00
2018-09-16T01:55:56.204Z,0.00
2018-09-16T01:56:56.210Z,0.00
2018-09-16T01:57:56.236Z,0.00
2018-09-16T01:58:56.257Z,0.00
2018-09-16T01:59:56.280Z,0.00
2018-09-16T02:00:56.296Z,0.00
2018-09-16T02:01:56.312Z,0.00
2018-09-16T02:02:56.336Z,0.00
2018-09-16T02:03:56.354Z,0.00
2018-09-16T02:04:56.378Z,0.00
2018-09-16T02:05:56.397Z,4.00
2018-09-16T02:06:56.408Z,0.00
2018-09-16T02:07:56.431Z,0.00
2018-09-16T02:08:56.452Z,0.00
2018-09-16T02:09:56.474Z,0.00
2018-09-16T02:10:56.492Z,0.00
2018-09-16T02:11:56.512Z,0.00
2018-09-16T02:12:56.529Z,0.00
2018-09-16T02:13:56.550Z,0.00
2018-09-16T02:14:56.569Z,0.00
2018-09-16T02:15:56.591Z,0.00
2018-09-16T02:16:56.610Z,0.00
2018-09-16T02:17:56.629Z,0.00
2018-09-16T02:18:56.648Z,0.00
2018-09-16T02:19:56.677Z,0.00
2018-09-16T02:20:56.691Z,0.00
2018-09-16T02:21:56.702Z,0.00
2018-09-16T02:22:56.727Z,0.00
2018-09-16T02:23:56.751Z,0.00
2018-09-16T02:24:56.766Z,0.00
2018-09-16T02:25:56.782Z,0.00
2018-09-16T02:26:56.808Z,0.00
2018-09-16T02:27:56.824Z,0.00
2018-09-16T02:28:56.844Z,0.00
2018-09-16T02:29:56.870Z,0.00
2018-09-16T02:30:56.886Z,0.00
2018-09-16T02:31:56.905Z,0.00
2018-09-16T02:32:56.916Z,0.00
2018-09-16T02:33:56.939Z,0.00
2018-09-16T02:34:56.959Z,0.00
2018-09-16T02:35:56.987Z,0.00
2018-09-16T02:36:57.000Z,0.00
2018-09-16T02:37:57.023Z,0.00
2018-09-16T02:38:57.048Z,0.00
2018-09-16T02:39:57.062Z,0.00
2018-09-16T02:40:57.081Z,0.00
2018-09-16T02:41:57.104Z,0.00
2018-09-16T02:42:57.119Z,0.00
2018-09-16T02:43:57.141Z,0.00
2018-09-16T02:44:57.157Z,0.00
2018-09-16T02:45:57.178Z,0.00
2018-09-16T02:46:57.198Z,0.00
2018-09-16T02:47:57.218Z,0.00
2018-09-16T02:48:57.236Z,0.00
2018-09-16T02:49:57.257Z,0.00
2018-09-16T02:50:57.281Z,0.00
2018-09-16T02:51:57.292Z,0.00
2018-09-16T02:52:57.315Z,0.00
2018-09-16T02:53:57.338Z,0.00
2018-09-16T02:54:57.356Z,0.00
2018-09-16T02:55:57.375Z,0.00
2018-09-16T02:56:57.388Z,0.00
2018-09-16T02:57:57.416Z,0.00
2018-09-16T02:58:57.428Z,0.00
2018-09-16T02:59:57.454Z,0.00
2018-09-16T03:00:57.466Z,0.00
2018-09-16T03:01:57.488Z,4.00
2018-09-16T03:02:57.514Z,0.00
2018-09-16T03:03:57.528Z,0.00
2018-09-16T03:04:57.546Z,0.00
2018-09-16T03:05:57.569Z,0.00
2018-09-16T03:06:57.588Z,0.00
2018-09-16T03:07:57.609Z,0.00
2018-09-16T03:08:57.619Z,0.00
2018-09-16T03:09:57.645Z,0.00
2018-09-16T03:10:57.669Z,0.00
2018-09-16T03:11:57.690Z,0.00
2018-09-16T03:12:57.707Z,0.00
2018-09-16T03:13:57.726Z,0.00
2018-09-16T03:14:57.751Z,0.00
2018-09-16T03:15:57.761Z,0.00
2018-09-16T03:16:57.788Z,0.00
2018-09-16T03:17:57.805Z,0.00
2018-09-16T03:18:57.891Z,0.00
2018-09-16T03:19:57.843Z,0.00
2018-09-16T03:20:57.864Z,0.00
2018-09-16T03:21:57.881Z,0.00
2018-09-16T03:22:57.901Z,0.00
2018-09-16T03:23:57.923Z,0.00
2018-09-16T03:24:57.938Z,0.00
2018-09-16T03:25:57.956Z,0.00
2018-09-16T03:26:57.982Z,0.00
2018-09-16T03:27:58.001Z,0.00
2018-09-16T03:28:58.026Z,0.00
2018-09-16T03:29:58.040Z,0.00
2018-09-16T03:30:58.056Z,0.00
2018-09-16T03:31:58.080Z,0.00
2018-09-16T03:32:58.096Z,0.00
2018-09-16T03:33:58.116Z,0.00
2018-09-16T03:34:58.134Z,0.00
2018-09-16T03:35:58.156Z,0.00
2018-09-16T03:36:58.178Z,0.00
2018-09-16T03:37:58.191Z,0.00
2018-09-16T03:38:58.213Z,0.00
2018-09-16T03:39:58.246Z,0.00
2018-09-16T03:40:58.256Z,0.00
2018-09-16T03:41:58.280Z,0.00
2018-09-16T03:42:58.291Z,4.00
2018-09-16T03:43:58.316Z,0.00
2018-09-16T03:44:58.330Z,0.00
2018-09-16T03:45:58.371Z,0.00
2018-09-16T03:46:58.383Z,0.00
2018-09-16T03:47:58.398Z,0.00
2018-09-16T03:48:58.409Z,0.00
2018-09-16T03:49:58.427Z,0.00
2018-09-16T03:50:58.533Z,0.00
2018-09-16T03:51:58.468Z,0.00
2018-09-16T03:52:58.490Z,0.00
2018-09-16T03:53:58.512Z,0.00
2018-09-16T03:54:58.531Z,0.00
2018-09-16T03:55:58.555Z,0.00
2018-09-16T03:56:58.575Z,0.00
2018-09-16T03:57:58.596Z,0.00
2018-09-16T03:58:58.606Z,0.00
2018-09-16T03:59:58.626Z,0.00
2018-09-16T04:00:58.647Z,0.00
2018-09-16T04:01:58.673Z,0.00
2018-09-16T04:02:58.684Z,0.00
2018-09-16T04:03:58.710Z,0.00
2018-09-16T04:04:58.725Z,0.00
2018-09-16T04:05:58.745Z,0.00
2018-09-16T04:06:58.763Z,0.00
2018-09-16T04:07:58.785Z,0.00
2018-09-16T04:08:58.804Z,0.00
2018-09-16T04:09:58.826Z,0.00
2018-09-16T04:10:58.840Z,0.00
2018-09-16T04:11:58.863Z,0.00
2018-09-16T04:12:58.878Z,4.00
2018-09-16T04:13:58.946Z,4.00
2018-09-16T04:14:58.921Z,4.00
2018-09-16T04:15:58.942Z,0.00
2018-09-16T04:16:58.964Z,4.00
2018-09-16T04:17:58.976Z,4.00
2018-09-16T04:18:59.002Z,4.00
2018-09-16T04:19:59.019Z,4.00
2018-09-16T04:20:59.058Z,4.00
2018-09-16T04:21:59.060Z,0.00
2018-09-16T04:22:59.080Z,4.00
2018-09-16T04:23:59.092Z,4.00
2018-09-16T04:24:59.114Z,4.00
2018-09-16T04:25:59.138Z,4.00
2018-09-16T04:26:59.156Z,4.00
2018-09-16T04:27:59.172Z,8.00
2018-09-16T04:28:59.190Z,4.00
2018-09-16T04:29:59.208Z,8.00
2018-09-16T04:30:59.236Z,8.00
2018-09-16T04:31:59.254Z,8.00
2018-09-16T04:32:59.272Z,12.00
2018-09-16T04:33:59.293Z,12.00
2018-09-16T04:34:59.307Z,16.00
2018-09-16T04:35:59.326Z,16.00
2018-09-16T04:36:59.343Z,20.00
2018-09-16T04:37:59.367Z,24.00
2018-09-16T04:38:59.385Z,28.00
2018-09-16T04:39:59.403Z,32.00
2018-09-16T04:40:59.425Z,36.00
2018-09-16T04:41:59.449Z,44.00
2018-09-16T04:42:59.465Z,48.00
2018-09-16T04:43:59.484Z,56.00
2018-09-16T04:44:59.570Z,64.00
2018-09-16T04:45:59.520Z,72.00
2018-09-16T04:46:59.540Z,84.00
2018-09-16T04:47:59.561Z,96.00
2018-09-16T04:48:59.579Z,108.00
2018-09-16T04:49:59.661Z,120.00
2018-09-16T04:50:59.616Z,132.00
2018-09-16T04:51:59.631Z,148.00
2018-09-16T04:52:59.655Z,160.00
2018-09-16T04:53:59.677Z,176.00
2018-09-16T04:54:59.691Z,192.00
2018-09-16T04:55:59.715Z,204.00
2018-09-16T04:56:59.741Z,228.00
2018-09-16T04:57:59.751Z,244.00
2018-09-16T04:58:59.770Z,264.00
2018-09-16T04:59:59.791Z,284.00
2018-09-16T05:00:59.810Z,304.00
2018-09-16T05:01:59.823Z,332.00
2018-09-16T05:02:59.851Z,344.00
2018-09-16T05:03:59.869Z,360.00
2018-09-16T05:04:59.885Z,376.00
2018-09-16T05:05:59.906Z,392.00
2018-09-16T05:06:59.922Z,408.00
2018-09-16T05:07:59.944Z,420.00
2018-09-16T05:08:59.965Z,436.00
2018-09-16T05:09:59.986Z,448.00
2018-09-16T05:11:00.007Z,464.00
2018-09-16T05:12:00.021Z,480.00
2018-09-16T05:13:00.047Z,492.00
2018-09-16T05:14:00.063Z,512.00
2018-09-16T05:15:00.087Z,524.00
2018-09-16T05:16:00.104Z,544.00
2018-09-16T05:17:00.114Z,568.00
2018-09-16T05:18:00.138Z,592.00
2018-09-16T05:19:00.159Z,624.00
2018-09-16T05:20:00.171Z,652.00
2018-09-16T05:21:00.193Z,676.00
2018-09-16T05:22:00.217Z,712.00
2018-09-16T05:23:00.246Z,748.00
2018-09-16T05:24:00.257Z,796.00
2018-09-16T05:25:00.279Z,836.00
2018-09-16T05:26:00.291Z,868.00
2018-09-16T05:27:00.308Z,904.00
2018-09-16T05:28:00.329Z,932.00
2018-09-16T05:29:00.349Z,948.00
2018-09-16T05:30:00.373Z,968.00
2018-09-16T05:31:00.387Z,992.00
2018-09-16T05:32:00.407Z,1016.00
2018-09-16T05:33:00.425Z,1036.00
2018-09-16T05:34:00.449Z,1052.00
2018-09-16T05:35:00.463Z,1072.00
2018-09-16T05:36:00.491Z,1096.00
2018-09-16T05:37:00.505Z,1128.00
2018-09-16T05:38:00.524Z,1164.00
2018-09-16T05:39:00.541Z,1184.00
2018-09-16T05:40:00.563Z,1220.00
2018-09-16T05:41:00.589Z,1248.00
2018-09-16T05:42:00.601Z,1296.00
2018-09-16T05:43:00.622Z,1356.00
2018-09-16T05:44:00.643Z,1436.00
2018-09-16T05:45:00.662Z,1544.00
2018-09-16T05:46:00.685Z,1648.00
2018-09-16T05:47:00.697Z,1732.00
2018-09-16T05:48:00.719Z,1804.00
2018-09-16T05:49:00.735Z,1872.00
2018-09-16T05:50:00.758Z,1932.00
2018-09-16T05:51:00.779Z,1992.00
2018-09-16T05:52:00.800Z,2056.00
2018-09-16T05:53:00.857Z,2104.00
2018-09-16T05:54:00.835Z,2188.00
2018-09-16T05:55:00.856Z,2280.00
2018-09-16T05:56:00.873Z,2356.00
2018-09-16T05:57:00.891Z,2420.00
2018-09-16T05:58:00.913Z,2488.00
2018-09-16T05:59:00.948Z,2564.00
2018-09-16T06:00:00.953Z,2632.00
2018-09-16T06:01:00.979Z,2736.00
2018-09-16T06:02:00.993Z,2852.00
2018-09-16T06:03:01.009Z,2960.00
2018-09-16T06:04:01.031Z,3088.00
2018-09-16T06:05:01.114Z,3232.00
2018-09-16T06:06:01.075Z,3368.00
2018-09-16T06:07:01.105Z,3476.00
2018-09-16T06:08:01.111Z,3576.00
2018-09-16T06:09:01.131Z,3664.00
2018-09-16T06:10:01.161Z,3676.00
2018-09-16T06:11:01.173Z,3696.00
2018-09-16T06:12:01.195Z,3680.00
2018-09-16T06:13:01.215Z,3600.00
2018-09-16T06:14:01.262Z,3500.00
2018-09-16T06:15:01.254Z,3324.00
2018-09-16T06:16:01.274Z,3212.00
2018-09-16T06:17:01.294Z,3116.00
2018-09-16T06:18:01.309Z,3044.00
2018-09-16T06:19:01.326Z,3008.00
2018-09-16T06:20:01.351Z,3004.00
2018-09-16T06:21:01.375Z,3048.00
2018-09-16T06:22:01.391Z,3112.00
2018-09-16T06:23:01.411Z,3200.00
2018-09-16T06:24:01.434Z,3296.00
2018-09-16T06:25:01.447Z,3376.00
2018-09-16T06:26:01.477Z,3460.00
2018-09-16T06:27:01.488Z,3552.00
2018-09-16T06:28:01.511Z,3584.00
2018-09-16T06:29:01.533Z,3532.00
2018-09-16T06:30:01.570Z,3488.00
2018-09-16T06:31:01.573Z,3464.00
2018-09-16T06:32:01.591Z,3476.00
2018-09-16T06:33:01.608Z,3528.00
2018-09-16T06:34:01.626Z,3576.00
2018-09-16T06:35:01.646Z,3624.00
2018-09-16T06:36:01.674Z,3684.00
2018-09-16T06:37:01.689Z,3744.00
2018-09-16T06:38:01.704Z,3820.00
2018-09-16T06:39:01.727Z,3940.00
2018-09-16T06:40:01.747Z,4092.00
2018-09-16T06:41:01.764Z,4200.00
2018-09-16T06:42:01.784Z,4300.00
2018-09-16T06:43:01.809Z,4400.00
2018-09-16T06:44:01.825Z,4488.00
2018-09-16T06:45:01.851Z,4564.00
2018-09-16T06:46:01.866Z,4680.00
2018-09-16T06:47:01.895Z,4796.00
2018-09-16T06:48:01.909Z,4896.00
2018-09-16T06:49:01.925Z,4992.00
2018-09-16T06:50:01.947Z,5076.00
2018-09-16T06:51:02.038Z,5124.00
2018-09-16T06:52:01.986Z,5120.00
2018-09-16T06:53:02.050Z,5100.00
2018-09-16T06:54:02.028Z,5044.00
2018-09-16T06:55:02.045Z,4964.00
2018-09-16T06:56:02.069Z,4900.00
2018-09-16T06:57:02.090Z,4828.00
2018-09-16T06:58:02.105Z,4760.00
2018-09-16T06:59:02.123Z,4700.00
2018-09-16T07:00:02.145Z,4616.00
2018-09-16T07:01:02.166Z,4520.00
2018-09-16T07:02:02.183Z,4472.00
2018-09-16T07:03:02.205Z,4444.00
2018-09-16T07:04:02.228Z,4464.00
2018-09-16T07:05:02.247Z,4412.00
2018-09-16T07:06:02.270Z,4408.00
2018-09-16T07:07:02.282Z,4384.00
2018-09-16T07:08:02.309Z,4404.00
2018-09-16T07:09:02.327Z,4444.00
2018-09-16T07:10:02.344Z,4476.00
2018-09-16T07:11:02.363Z,4536.00
2018-09-16T07:12:02.389Z,4624.00
2018-09-16T07:13:02.406Z,4708.00
2018-09-16T07:14:02.431Z,4836.00
2018-09-16T07:15:02.453Z,4840.00
2018-09-16T07:16:02.472Z,4908.00
2018-09-16T07:17:02.485Z,4952.00
2018-09-16T07:18:02.543Z,5080.00
2018-09-16T07:19:02.527Z,5144.00
2018-09-16T07:20:02.598Z,5160.00
2018-09-16T07:21:02.572Z,5192.00
2018-09-16T07:22:02.591Z,5272.00
2018-09-16T07:23:02.610Z,5416.00
2018-09-16T07:24:02.628Z,5448.00
2018-09-16T07:25:02.647Z,5360.00
2018-09-16T07:26:02.667Z,5440.00
2018-09-16T07:27:02.699Z,5524.00
2018-09-16T07:28:02.712Z,5628.00
2018-09-16T07:29:02.730Z,5760.00
2018-09-16T07:30:02.756Z,5928.00
2018-09-16T07:31:02.775Z,6052.00
2018-09-16T07:32:02.791Z,6092.00
2018-09-16T07:33:02.811Z,6184.00
2018-09-16T07:34:02.851Z,6272.00
2018-09-16T07:35:02.856Z,6336.00
2018-09-16T07:36:02.871Z,6424.00
2018-09-16T07:37:02.893Z,6516.00
2018-09-16T07:38:02.911Z,6636.00
2018-09-16T07:39:02.935Z,6696.00
2018-09-16T07:40:02.957Z,6744.00
2018-09-16T07:41:02.975Z,6768.00
2018-09-16T07:42:03.000Z,6664.00
2018-09-16T07:43:03.017Z,6600.00
2018-09-16T07:44:03.085Z,6548.00
2018-09-16T07:45:03.056Z,6496.00
2018-09-16T07:46:03.085Z,6288.00
2018-09-16T07:47:03.104Z,6192.00
2018-09-16T07:48:03.129Z,6104.00
2018-09-16T07:49:03.141Z,6000.00
2018-09-16T07:50:03.162Z,5904.00
2018-09-16T07:51:03.183Z,5776.00
2018-09-16T07:52:03.213Z,5688.00
2018-09-16T07:53:03.271Z,5620.00
2018-09-16T07:54:03.248Z,5588.00
2018-09-16T07:55:03.267Z,5556.00
2018-09-16T07:56:03.291Z,5540.00
2018-09-16T07:57:03.309Z,5488.00
2018-09-16T07:58:03.339Z,5392.00
2018-09-16T07:59:03.350Z,5304.00
2018-09-16T08:00:03.371Z,5280.00
2018-09-16T08:01:03.394Z,5156.00
2018-09-16T08:02:03.412Z,5072.00
2018-09-16T08:03:03.438Z,5136.00
2018-09-16T08:04:03.458Z,5164.00
2018-09-16T08:05:03.476Z,5100.00
2018-09-16T08:06:03.562Z,5016.00
2018-09-16T08:07:03.519Z,4984.00
2018-09-16T08:08:03.588Z,5008.00
2018-09-16T08:09:03.561Z,5000.00
2018-09-16T08:10:03.578Z,5036.00
2018-09-16T08:11:03.624Z,5104.00
2018-09-16T08:12:03.624Z,5124.00
2018-09-16T08:13:03.642Z,5144.00
2018-09-16T08:14:03.665Z,5172.00
2018-09-16T08:15:03.688Z,5156.00
2018-09-16T08:16:03.703Z,5184.00
2018-09-16T08:17:03.732Z,5196.00
2018-09-16T08:18:03.744Z,5140.00
2018-09-16T08:19:03.765Z,5056.00
2018-09-16T08:20:03.783Z,4968.00
2018-09-16T08:21:03.860Z,4848.00
2018-09-16T08:22:03.824Z,4644.00
2018-09-16T08:23:03.853Z,4768.00
2018-09-16T08:24:03.876Z,4612.00
2018-09-16T08:25:03.895Z,4596.00
2018-09-16T08:26:03.913Z,4632.00
2018-09-16T08:27:03.931Z,4644.00
2018-09-16T08:28:03.957Z,4620.00
2018-09-16T08:29:03.978Z,4648.00
2018-09-16T08:30:03.997Z,4628.00
2018-09-16T08:31:04.018Z,4632.00
2018-09-16T08:32:04.042Z,4700.00
2018-09-16T08:33:04.069Z,4764.00
2018-09-16T08:34:04.079Z,4820.00
2018-09-16T08:35:04.105Z,4900.00
2018-09-16T08:36:04.123Z,5024.00
2018-09-16T08:37:04.141Z,5088.00
2018-09-16T08:38:04.230Z,5116.00
2018-09-16T08:39:04.182Z,5152.00
2018-09-16T08:40:04.204Z,5192.00
2018-09-16T08:41:04.227Z,5256.00
2018-09-16T08:42:04.249Z,5308.00
2018-09-16T08:43:04.273Z,5392.00
2018-09-16T08:44:04.291Z,5320.00
2018-09-16T08:45:04.310Z,5264.00
2018-09-16T08:46:04.334Z,5232.00
2018-09-16T08:47:04.352Z,5152.00
2018-09-16T08:48:04.376Z,5068.00
2018-09-16T08:49:04.398Z,4980.00
2018-09-16T08:50:04.414Z,5084.00
2018-09-16T08:51:04.439Z,4904.00
2018-09-16T08:52:04.498Z,4832.00
2018-09-16T08:53:04.480Z,4880.00
2018-09-16T08:54:04.500Z,5232.00
2018-09-16T08:55:04.518Z,5420.00
2018-09-16T08:56:04.543Z,5532.00
2018-09-16T08:57:04.567Z,5676.00
2018-09-16T08:58:04.684Z,5608.00
2018-09-16T08:59:04.604Z,5612.00
2018-09-16T09:00:04.630Z,5616.00
2018-09-16T09:01:04.653Z,5576.00
2018-09-16T09:02:04.673Z,5544.00
2018-09-16T09:03:04.689Z,5540.00
2018-09-16T09:04:04.713Z,5524.00
2018-09-16T09:05:04.732Z,5484.00
2018-09-16T09:06:04.752Z,5620.00
2018-09-16T09:07:04.784Z,5636.00
2018-09-16T09:08:04.799Z,5696.00
2018-09-16T09:09:04.816Z,5792.00
2018-09-16T09:10:04.838Z,5868.00
2018-09-16T09:11:04.858Z,5944.00
2018-09-16T09:12:04.882Z,6000.00
2018-09-16T09:13:04.902Z,6096.00
2018-09-16T09:14:04.930Z,6132.00
2018-09-16T09:15:04.945Z,6196.00
2018-09-16T09:16:04.965Z,6268.00
2018-09-16T09:17:04.986Z,6416.00
2018-09-16T09:18:05.007Z,6528.00
2018-09-16T09:19:05.041Z,6620.00
2018-09-16T09:20:05.054Z,6696.00
2018-09-16T09:21:05.088Z,6712.00
2018-09-16T09:22:05.101Z,6532.00
2018-09-16T09:23:05.122Z,6520.00
2018-09-16T09:24:05.140Z,6784.00
2018-09-16T09:25:05.160Z,6572.00
2018-09-16T09:26:05.182Z,6644.00
2018-09-16T09:27:05.201Z,6704.00
2018-09-16T09:28:05.229Z,6716.00
2018-09-16T09:29:05.276Z,6868.00
2018-09-16T09:30:05.275Z,6992.00
2018-09-16T09:31:05.292Z,7032.00
2018-09-16T09:32:05.315Z,7208.00
2018-09-16T09:33:05.335Z,7380.00
2018-09-16T09:34:05.355Z,7720.00
2018-09-16T09:35:05.379Z,7840.00
2018-09-16T09:36:05.397Z,7948.00
2018-09-16T09:37:05.424Z,8100.00
2018-09-16T09:38:05.502Z,8296.00
2018-09-16T09:39:05.466Z,8560.00
2018-09-16T09:40:05.495Z,8796.00
2018-09-16T09:41:05.508Z,8984.00
2018-09-16T09:42:05.525Z,9020.00
2018-09-16T09:43:05.555Z,9136.00
2018-09-16T09:44:05.577Z,9096.00
2018-09-16T09:45:05.604Z,9100.00
2018-09-16T09:46:05.617Z,9236.00
2018-09-16T09:47:05.642Z,9380.00
2018-09-16T09:48:05.665Z,9316.00
2018-09-16T09:49:05.692Z,9432.00
2018-09-16T09:50:05.705Z,9256.00
2018-09-16T09:51:05.891Z,9196.00
2018-09-16T09:52:05.759Z,9384.00
2018-09-16T09:53:05.776Z,11036.00
2018-09-16T09:54:05.797Z,12144.00
2018-09-16T09:55:05.824Z,11236.00
2018-09-16T09:56:05.850Z,11272.00
2018-09-16T09:57:05.868Z,10676.00
2018-09-16T09:58:05.889Z,10828.00
2018-09-16T09:59:05.998Z,10172.00
2018-09-16T10:00:05.939Z,10288.00
2018-09-16T10:01:05.952Z,11124.00
2018-09-16T10:02:05.985Z,12256.00
2018-09-16T10:03:05.997Z,12916.00
2018-09-16T10:04:06.019Z,12752.00
2018-09-16T10:05:06.048Z,12596.00
2018-09-16T10:06:06.113Z,12012.00
2018-09-16T10:07:06.089Z,13768.00
2018-09-16T10:08:06.113Z,13468.00
2018-09-16T10:09:06.136Z,12644.00
2018-09-16T10:10:06.163Z,13420.00
2018-09-16T10:11:06.184Z,13184.00
2018-09-16T10:12:06.205Z,11768.00
2018-09-16T10:13:06.227Z,11372.00
2018-09-16T10:14:06.254Z,10608.00
2018-09-16T10:15:06.278Z,10340.00
2018-09-16T10:16:06.298Z,10228.00
2018-09-16T10:17:06.318Z,10168.00
2018-09-16T10:18:06.344Z,10624.00
2018-09-16T10:19:06.373Z,10572.00
2018-09-16T10:20:06.392Z,11580.00
2018-09-16T10:21:06.413Z,11312.00
2018-09-16T10:22:06.439Z,10904.00
2018-09-16T10:23:06.462Z,11364.00
2018-09-16T10:24:06.550Z,11776.00
2018-09-16T10:25:06.508Z,12420.00
2018-09-16T10:26:06.530Z,11904.00
2018-09-16T10:27:06.552Z,13132.00
2018-09-16T10:28:06.570Z,13492.00
2018-09-16T10:29:06.604Z,13864.00
2018-09-16T10:30:06.630Z,14184.00
2018-09-16T10:31:06.645Z,14460.00
2018-09-16T10:32:06.672Z,14780.00
2018-09-16T10:33:06.696Z,13636.00
2018-09-16T10:34:06.724Z,15640.00
2018-09-16T10:35:06.740Z,15792.00
2018-09-16T10:36:06.764Z,16444.00
2018-09-16T10:37:06.784Z,16520.00
2018-09-16T10:38:06.811Z,17108.00
2018-09-16T10:39:06.838Z,19104.00
2018-09-16T10:40:06.858Z,19520.00
2018-09-16T10:41:06.883Z,19680.00
2018-09-16T10:42:06.908Z,21024.00
2018-09-16T10:43:06.928Z,22112.00
2018-09-16T10:44:06.954Z,23488.00
2018-09-16T10:45:06.975Z,26464.00
2018-09-16T10:46:07.003Z,51200.00
2018-09-16T10:47:07.031Z,74048.00
2018-09-16T10:48:07.054Z,70304.00
2018-09-16T10:49:07.073Z,21440.00
2018-09-16T10:50:07.097Z,75648.00
2018-09-16T10:51:07.124Z,21312.00
2018-09-16T10:52:07.145Z,79552.00
2018-09-16T10:53:07.180Z,76928.00
2018-09-16T10:54:07.197Z,71712.00
2018-09-16T10:55:07.224Z,80736.00
2018-09-16T10:56:07.256Z,84384.00
2018-09-16T10:57:07.280Z,80960.00
2018-09-16T10:58:07.306Z,22208.00
2018-09-16T10:59:07.333Z,83200.00
2018-09-16T11:00:07.369Z,81248.00
2018-09-16T11:01:07.393Z,87008.00
2018-09-16T11:02:07.414Z,89216.00
2018-09-16T11:03:07.446Z,79456.00
2018-09-16T11:04:07.473Z,76288.00
2018-09-16T11:05:07.505Z,74144.00
2018-09-16T11:06:07.533Z,76704.00
2018-09-16T11:07:07.564Z,85024.00
2018-09-16T11:08:07.612Z,87456.00
2018-09-16T11:09:07.622Z,80800.00
2018-09-16T11:10:07.644Z,80640.00
2018-09-16T11:11:07.685Z,79968.00
2018-09-16T11:12:07.710Z,85664.00
2018-09-16T11:13:07.739Z,86464.00
2018-09-16T11:14:07.771Z,82720.00
2018-09-16T11:15:07.802Z,82528.00
2018-09-16T11:16:07.833Z,86560.00
2018-09-16T11:17:07.861Z,84064.00
2018-09-16T11:18:07.894Z,82240.00
2018-09-16T11:19:07.927Z,88448.00
2018-09-16T11:20:07.956Z,86880.00
2018-09-16T11:21:07.992Z,88512.00
2018-09-16T11:22:08.092Z,84448.00
2018-09-16T11:23:08.046Z,81088.00
2018-09-16T11:24:08.080Z,79840.00
2018-09-16T11:25:08.105Z,78528.00
2018-09-16T11:26:08.144Z,72800.00
2018-09-16T11:27:08.173Z,64128.00
2018-09-16T11:28:08.198Z,56992.00
2018-09-16T11:29:08.230Z,64256.00
2018-09-16T11:30:08.270Z,66656.00
2018-09-16T11:31:08.294Z,68000.00
2018-09-16T11:32:08.326Z,72768.00
2018-09-16T11:33:08.356Z,79328.00
2018-09-16T11:34:08.390Z,86464.00
2018-09-16T11:35:08.414Z,88416.00
2018-09-16T11:36:08.456Z,77248.00
2018-09-16T11:37:08.480Z,79520.00
2018-09-16T11:38:08.514Z,84896.00
2018-09-16T11:39:08.544Z,80384.00
2018-09-16T11:40:08.574Z,81024.00
2018-09-16T11:41:08.600Z,87296.00
2018-09-16T11:42:08.642Z,58528.00
2018-09-16T11:43:08.676Z,53536.00
2018-09-16T11:44:08.698Z,41568.00
2018-09-16T11:45:08.728Z,50560.00
2018-09-16T11:46:08.761Z,34560.00
2018-09-16T11:47:08.798Z,41984.00
2018-09-16T11:48:08.831Z,62336.00
2018-09-16T11:49:08.853Z,47008.00
2018-09-16T11:50:08.885Z,73792.00
2018-09-16T11:51:08.922Z,87744.00
2018-09-16T11:52:09.050Z,91552.00
2018-09-16T11:53:08.968Z,95008.00
2018-09-16T11:54:09.007Z,98144.00
2018-09-16T11:55:09.043Z,97440.00
2018-09-16T11:56:09.083Z,92928.00
2018-09-16T11:57:09.103Z,93664.00
2018-09-16T11:58:09.127Z,90208.00
2018-09-16T11:59:09.163Z,41952.00
2018-09-16T12:00:09.198Z,91744.00
2018-09-16T12:01:09.226Z,85760.00
2018-09-16T12:02:09.258Z,51072.00
2018-09-16T12:03:09.292Z,64960.00
2018-09-16T12:04:09.326Z,72736.00
2018-09-16T12:05:09.411Z,71744.00
2018-09-16T12:06:09.386Z,69472.00
2018-09-16T12:07:09.418Z,62592.00
2018-09-16T12:08:09.452Z,64384.00
2018-09-16T12:09:09.478Z,77920.00
2018-09-16T12:10:09.514Z,77568.00
2018-09-16T12:11:09.545Z,89152.00
2018-09-16T12:12:09.589Z,81408.00
2018-09-16T12:13:09.611Z,68512.00
2018-09-16T12:14:09.637Z,64800.00
2018-09-16T12:15:09.677Z,39456.00
2018-09-16T12:16:09.728Z,23968.00
2018-09-16T12:17:09.735Z,22432.00
2018-09-16T12:18:09.762Z,22784.00
2018-09-16T12:19:09.795Z,22752.00
2018-09-16T12:20:09.822Z,22592.00
2018-09-16T12:21:09.861Z,21088.00
2018-09-16T12:22:09.891Z,20352.00
2018-09-16T12:23:09.913Z,20320.00
2018-09-16T12:24:09.952Z,20032.00
2018-09-16T12:25:09.986Z,20032.00
2018-09-16T12:26:10.010Z,21504.00
2018-09-16T12:27:10.041Z,22432.00
2018-09-16T12:28:10.072Z,28416.00
2018-09-16T12:29:10.088Z,30432.00